Overview Statistics Trail Chart Weather Telemetry Raw packets
 

This is the latest recevied weather packets stored in our database for station/object IR9AK-10. If no packets are shown the sender has not sent any weather packets the latest 10 day(s).

<< 43 44 45 46 47 48 49 >>
Time Temp. Humidity Pressure Rain* Wind** Luminosity Snow
1787931652 45° C 30% 1060 hPa - - - -
1787931053 45.56° C 31% 1060 hPa - - - -
1787930453 45.56° C 30% 1060 hPa - - - -
1787929854 46.67° C 27% 1059.9 hPa - - - -
1787929255 47.22° C 24% 1059.8 hPa - - - -
1787928656 47.78° C 23% 1059.7 hPa - - - -
1787928057 47.78° C 23% 1059.8 hPa - - - -
1787927457 47.78° C 23% 1059.7 hPa - - - -
1787926857 46.67° C 24% 1059.8 hPa - - - -
1787926259 46.67° C 26% 1059.9 hPa - - - -
1787925659 46.67° C 28% 1060.1 hPa - - - -
1787925060 46.67° C 28% 1060.2 hPa - - - -
1787924460 46.67° C 29% 1060.2 hPa - - - -
1787923862 46.11° C 29% 1060.2 hPa - - - -
1787923262 46.11° C 31% 1060.4 hPa - - - -
1787922663 46.11° C 34% 1060.4 hPa - - - -
1787922064 46.11° C 33% 1060.6 hPa - - - -
1787921464 45.56° C 34% 1060.8 hPa - - - -
1787920866 46.11° C 32% 1060.9 hPa - - - -
1787920266 45.56° C 33% 1061.1 hPa - - - -
1787919666 45.56° C 32% 1061.4 hPa - - - -
1787919067 45.56° C 33% 1061.5 hPa - - - -
1787918468 44.44° C 36% 1061.7 hPa - - - -
1787917869 44.44° C 36% 1061.8 hPa - - - -
1787917271 45° C 34% 1061.9 hPa - - - -

* Rain since midnight (hover to see other rain measurements)
** Current wind speed in m/s (hover to see current wind gust speed)